createdAt,value
2023-02-17T00:01:05.590Z,48
2023-02-17T00:16:04.870Z,49
2023-02-17T00:31:05.393Z,50
2023-02-17T00:46:05.550Z,47
2023-02-17T01:01:05.564Z,43
2023-02-17T01:16:05.820Z,41
2023-02-17T01:31:05.873Z,39
2023-02-17T01:46:05.471Z,41
2023-02-17T02:01:05.415Z,40
2023-02-17T02:16:05.833Z,39
2023-02-17T02:31:05.596Z,38
2023-02-17T02:46:04.968Z,40
2023-02-17T03:01:05.393Z,44
2023-02-17T03:16:06.070Z,45
2023-02-17T03:31:04.957Z,46
2023-02-17T03:46:05.765Z,47
2023-02-17T04:01:05.926Z,46
2023-02-17T04:16:05.656Z,41
2023-02-17T04:31:05.820Z,40
2023-02-17T04:46:05.952Z,40
2023-02-17T05:01:04.735Z,39
2023-02-17T05:16:05.545Z,39
2023-02-17T05:31:05.304Z,37
2023-02-17T05:46:05.857Z,40
2023-02-17T06:01:05.124Z,43
2023-02-17T06:16:04.752Z,37
2023-02-17T06:31:04.747Z,40
2023-02-17T06:46:05.068Z,41
2023-02-17T07:01:05.074Z,39
2023-02-17T07:16:05.676Z,37
2023-02-17T07:31:05.291Z,39
2023-02-17T07:46:05.104Z,38
2023-02-17T08:01:05.394Z,36
2023-02-17T08:16:05.139Z,38
2023-02-17T08:31:04.684Z,35
2023-02-17T08:46:05.192Z,34
2023-02-17T09:01:05.424Z,34
2023-02-17T09:16:05.070Z,32
2023-02-17T09:31:05.206Z,29
2023-02-17T09:46:05.252Z,30
2023-02-17T10:01:05.425Z,30
2023-02-17T10:16:05.525Z,28
2023-02-17T10:31:05.417Z,32
2023-02-17T10:46:06.247Z,30
2023-02-17T11:01:05.729Z,29
2023-02-17T11:16:05.724Z,28
2023-02-17T11:31:05.967Z,37
2023-02-17T11:46:05.827Z,29
2023-02-17T12:01:05.833Z,29
2023-02-17T12:16:05.451Z,38
2023-02-17T12:31:05.364Z,32
2023-02-17T12:46:05.770Z,26
2023-02-17T13:01:07.296Z,29
2023-02-17T13:16:05.030Z,31
2023-02-17T13:31:05.758Z,29
2023-02-17T13:46:05.790Z,28
2023-02-17T14:01:05.272Z,30
2023-02-17T14:16:06.090Z,29
2023-02-17T14:31:04.962Z,26
2023-02-17T14:46:05.717Z,29
2023-02-17T15:01:05.637Z,29
2023-02-17T15:16:06.160Z,30
2023-02-17T15:31:05.388Z,30
2023-02-17T15:46:05.533Z,29
2023-02-17T16:01:05.128Z,42
2023-02-17T16:16:05.898Z,33
2023-02-17T16:31:04.884Z,27
2023-02-17T16:46:04.838Z,27
2023-02-17T17:01:05.596Z,27
2023-02-17T17:16:05.692Z,22
2023-02-17T17:31:04.842Z,24
2023-02-17T17:46:06.039Z,25
2023-02-17T18:01:05.385Z,23
2023-02-17T18:16:05.307Z,25
2023-02-17T18:31:05.319Z,27
2023-02-17T18:46:05.200Z,26
2023-02-17T19:01:05.175Z,27
2023-02-17T19:16:06.338Z,26
2023-02-17T19:31:05.761Z,28
2023-02-17T19:46:05.205Z,30
2023-02-17T20:01:04.912Z,29
2023-02-17T20:16:05.188Z,28
2023-02-17T20:31:04.786Z,26
2023-02-17T20:46:05.351Z,24
2023-02-17T21:01:04.800Z,25
2023-02-17T21:16:05.320Z,26
2023-02-17T21:31:04.996Z,13
2023-02-17T21:46:05.895Z,12
2023-02-17T22:01:05.424Z,12
2023-02-17T22:16:04.979Z,10
2023-02-17T22:31:05.377Z,10
2023-02-17T22:46:05.218Z,9
2023-02-17T23:01:05.762Z,12
2023-02-17T23:16:04.684Z,14
2023-02-17T23:31:05.924Z,13
2023-02-17T23:46:05.588Z,11
